Airfield :
LOGIN :

Register | Disclaimer

   EN    FR    IT 

 










Legend :    VFR   Marginal VFR   IFR   Intensive IFR   Very Intensive IFR
Visi :
Ceiling :
>= 8 km
>= 3000ft
5 to 8 km
1000 to 3000 ft
1500m to 5 km
500 to 1000 ft
800 to 1500m
200 to 500 ft
< 800m
< 200 ft
Symbols :   Thunderstorms  Fog  Heavy snow  Heavy precipitations  Wind > 20 kt
SIGMETs :     Misc.  Thunderstorms  Icing  Turbulence  Mountain Waves  Volcanic Ashes






- Airport Elevation : 83 ft
- IATA code : LHR


EGLL - London Heathrow

CURRENT METAR :
  • 270250Z AUTO 21010KT 9999 BKN017 18/15 Q1009 TEMPO SHRA

EXPIRED METARs :
  • 270220Z AUTO 25006KT 9999 NCD 18/15 Q1009 TEMPO SHRA
  • 270150Z AUTO 25006KT 9999 NCD 19/15 Q1009 TEMPO SHRA
  • 270120Z AUTO 25007KT 9999 NCD 19/15 Q1009 TEMPO SHRA
  • 270050Z AUTO 27007KT 9999 NCD 19/15 Q1009 TEMPO SHRA
  • 270020Z AUTO 24006KT 9999 NCD 19/16 Q1009

TAF TAF EGLL
Valid from the 27 at 00:00 until the 28 at 06:00 UTC


262301Z 2700/2806 22007KT 9999 SCT040
TEMPO 2703/2718 7000 SHRA
PROB30
TEMPO 2703/2710 4000 +SHRA
PROB40
TEMPO 2710/2719 3000 +SHRA BKN014 BKN030CB
PROB30
TEMPO 2719/2804 6000 SHRA BKN012



MET'MAP, your aeronautical weather chart ! - Copyright ORBIFLY December 2007 - Disclaimer

ORBIFLY MET'MAP TEAM :

Programming & Development : Alexandra Zaïnal
Concept & original design : Baudouin d'Aumeries
Assistance for programming : Marc-Olivier Méhu
Technical & hardware support : Manuel Goepfert

Contact : metmap@orbifly.com




SOURCES & CREDITS :

   NOAA